Terminal Aerodrome Forecast
Issued by NWS Nashville, TN

Home | Current Version | Previous Version | Text Only | Print | Product List | Glossary On
Versions: 1 2 3 4 5 6 7 8 9 10 11 12 13 14 15 16 17 18 19 20 21 22 23 24 25 26
000
FTUS44 KOHX 231700 RRA
TAFCSV
TAF
KCSV 231740Z 2318/2418 34006KT P6SM VCTS BKN030CB BKN060 BKN200
     FM240300 02002KT P6SM SCT100 BKN200
     FM240500 00000KT 4SM BR SCT100 BKN200
     FM240800 00000KT 2SM BR SCT200
     FM241300 03003KT P6SM SCT120 BKN200
     FM241500 11004KT P6SM VCTS SCT030CB BKN100 BKN200=

USA.gov is the U.S. government's official web portal to all federal, state and local government web resources and services.